Time;durP1;ratioP1;P1;durP2;ratioP2;P2;SDS_P1;SDS_P2;PMS_P1;PMS_P2;Temp;Humidity;BMP_temperature;BMP_pressure;BME280_temperature;BME280_humidity;BME280_pressure;Samples;Min_cycle;Max_cycle;Signal;HPM_P1;HPM_P2
2022/09/21 03:00:40;;;;;;;;;;;19.80;46.40;;;;;;5826488;23;45894;-68
2022/09/21 03:03:15;;;;;;;;;;;19.80;46.50;;;;;;4911506;28;45686;-64
2022/09/21 03:05:42;;;;;;;;;;;19.80;46.50;;;;;;4915468;28;45748;-64
2022/09/21 03:08:07;;;;;;;;;;;19.80;46.50;;;;;;4902364;28;45650;-64
2022/09/21 03:10:34;;;;;;;;;;;19.80;46.50;;;;;;4933201;28;45389;-63
2022/09/21 03:13:00;;;;;;;;;;;19.80;46.50;;;;;;4918404;28;45064;-64
2022/09/21 03:15:26;;;;;;;;;;;19.80;46.50;;;;;;4894993;28;47059;-64
2022/09/21 03:17:52;;;;;;;;;;;19.80;46.50;;;;;;4910712;28;45779;-63
2022/09/21 03:20:17;;;;;;;;;;;19.80;46.50;;;;;;4915402;28;45321;-63
2022/09/21 03:22:43;;;;;;;;;;;19.80;46.50;;;;;;4915731;28;45377;-63
2022/09/21 03:25:11;;;;;;;;;;;19.80;46.40;;;;;;4917608;28;45484;-64
2022/09/21 03:27:36;;;;;;;;;;;19.80;46.50;;;;;;4895814;28;44670;-67
2022/09/21 03:30:02;;;;;;;;;;;19.80;46.50;;;;;;4913726;28;45205;-64
2022/09/21 03:32:27;;;;;;;;;;;19.80;46.50;;;;;;4909362;28;45427;-63
2022/09/21 03:34:53;;;;;;;;;;;19.80;46.50;;;;;;4911813;28;45916;-64
2022/09/21 03:37:18;;;;;;;;;;;19.80;46.50;;;;;;4916439;28;46015;-64
2022/09/21 03:39:46;;;;;;;;;;;19.80;46.50;;;;;;4912548;28;45153;-64
2022/09/21 03:42:12;;;;;;;;;;;19.80;46.50;;;;;;4913120;28;45125;-63
2022/09/21 03:44:39;;;;;;;;;;;19.80;46.50;;;;;;4898036;28;46519;-65
2022/09/21 03:47:05;;;;;;;;;;;19.80;46.50;;;;;;4914246;28;44963;-63
2022/09/21 03:49:31;;;;;;;;;;;19.80;46.60;;;;;;4913299;28;45403;-63
2022/09/21 03:51:58;;;;;;;;;;;19.70;46.50;;;;;;4878276;28;45079;-63
2022/09/21 03:54:24;;;;;;;;;;;19.80;46.50;;;;;;4915341;28;45855;-62
2022/09/21 03:56:50;;;;;;;;;;;19.70;46.50;;;;;;4914389;28;45510;-62
2022/09/21 03:59:16;;;;;;;;;;;19.70;46.50;;;;;;4913634;28;44931;-64
2022/09/21 04:01:41;;;;;;;;;;;19.70;46.50;;;;;;4912903;28;45222;-64
2022/09/21 04:04:07;;;;;;;;;;;19.70;46.50;;;;;;4893138;28;46097;-64
2022/09/21 04:06:32;;;;;;;;;;;19.70;46.50;;;;;;4912644;28;45470;-64
2022/09/21 04:09:01;;;;;;;;;;;19.70;46.50;;;;;;4913261;28;45143;-63
2022/09/21 04:11:27;;;;;;;;;;;19.70;46.60;;;;;;4914808;28;45265;-64
2022/09/21 04:13:55;;;;;;;;;;;19.70;46.50;;;;;;4920143;28;46723;-61
2022/09/21 04:16:22;;;;;;;;;;;19.70;46.50;;;;;;4915722;28;45158;-63
2022/09/21 04:18:49;;;;;;;;;;;19.70;46.60;;;;;;4915454;28;45214;-62
2022/09/21 04:21:15;;;;;;;;;;;19.70;46.60;;;;;;4915768;28;45498;-63
2022/09/21 04:23:40;;;;;;;;;;;19.70;46.60;;;;;;4914813;28;46836;-66
2022/09/21 04:26:15;;;;;;;;;;;19.70;46.60;;;;;;4918039;28;45515;-60
2022/09/21 04:28:40;;;;;;;;;;;19.60;46.60;;;;;;4900436;28;45302;-62
2022/09/21 04:31:06;;;;;;;;;;;19.60;46.60;;;;;;4912907;28;45177;-63
2022/09/21 04:33:31;;;;;;;;;;;19.60;46.60;;;;;;4915131;28;46457;-63
2022/09/21 04:35:58;;;;;;;;;;;19.60;46.50;;;;;;4916526;28;44927;-63
2022/09/21 04:38:23;;;;;;;;;;;19.60;46.60;;;;;;4915949;28;45370;-63
2022/09/21 04:40:55;;;;;;;;;;;19.60;46.60;;;;;;4913293;28;44714;-63
2022/09/21 04:43:21;;;;;;;;;;;19.60;46.60;;;;;;4917469;28;45176;-64
2022/09/21 04:45:47;;;;;;;;;;;19.60;46.60;;;;;;4916761;28;45233;-62
2022/09/21 04:48:13;;;;;;;;;;;19.60;46.60;;;;;;4913972;28;45326;-62
2022/09/21 04:50:38;;;;;;;;;;;19.60;46.60;;;;;;4894116;28;45239;-66
2022/09/21 04:53:04;;;;;;;;;;;19.60;47.20;;;;;;4898250;28;45337;-63
2022/09/21 04:55:30;;;;;;;;;;;19.60;46.60;;;;;;4914734;28;45389;-64
2022/09/21 04:57:56;;;;;;;;;;;19.60;46.60;;;;;;4913081;28;45318;-63
2022/09/21 05:00:21;;;;;;;;;;;19.60;46.60;;;;;;4912022;28;45269;-63
2022/09/21 05:02:47;;;;;;;;;;;19.60;46.60;;;;;;4918478;28;46014;-61
2022/09/21 05:05:13;;;;;;;;;;;19.60;46.60;;;;;;4917687;28;45373;-64
2022/09/21 05:07:38;;;;;;;;;;;19.60;46.70;;;;;;4917920;28;45281;-68
2022/09/21 05:10:04;;;;;;;;;;;19.60;46.60;;;;;;4916895;28;44882;-64
2022/09/21 05:12:30;;;;;;;;;;;19.60;46.70;;;;;;4913700;28;46255;-65
2022/09/21 05:14:55;;;;;;;;;;;19.60;46.60;;;;;;4898911;28;45465;-66
2022/09/21 05:17:21;;;;;;;;;;;19.50;46.60;;;;;;4913438;28;45258;-59
2022/09/21 05:19:50;;;;;;;;;;;19.50;46.60;;;;;;4916572;28;45607;-60
2022/09/21 05:22:15;;;;;;;;;;;19.50;46.60;;;;;;4914583;28;45964;-62
2022/09/21 05:24:41;;;;;;;;;;;19.50;46.60;;;;;;4903867;28;44575;-62
2022/09/21 05:27:07;;;;;;;;;;;19.60;46.70;;;;;;4911871;28;45465;-63
2022/09/21 05:29:33;;;;;;;;;;;19.50;46.60;;;;;;4914219;28;45514;-64
2022/09/21 05:32:02;;;;;;;;;;;19.50;46.70;;;;;;4911507;28;47383;-62
2022/09/21 05:34:46;;;;;;;;;;;19.50;46.60;;;;;;4917518;28;45313;-63
2022/09/21 05:37:30;;;;;;;;;;;19.50;46.70;;;;;;4916133;28;45353;-61
2022/09/21 05:39:56;;;;;;;;;;;19.50;46.60;;;;;;4900526;28;45332;-63
2022/09/21 05:42:21;;;;;;;;;;;19.50;46.70;;;;;;4918824;28;46008;-62
2022/09/21 05:44:48;;;;;;;;;;;19.60;46.70;;;;;;4916871;28;44697;-65
2022/09/21 05:47:20;;;;;;;;;;;19.60;46.70;;;;;;4916760;28;45435;-62
2022/09/21 05:49:53;;;;;;;;;;;19.50;46.70;;;;;;4897386;28;45487;-63
2022/09/21 05:52:38;;;;;;;;;;;19.50;46.70;;;;;;4896460;28;46170;-66
2022/09/21 05:55:20;;;;;;;;;;;19.50;46.70;;;;;;4897332;28;45276;-63
2022/09/21 05:58:06;;;;;;;;;;;19.50;46.60;;;;;;4917302;28;44915;-63
2022/09/21 06:00:53;;;;;;;;;;;19.50;46.70;;;;;;4901534;28;46818;-61
2022/09/21 06:03:21;;;;;;;;;;;19.50;46.70;;;;;;4918088;28;45509;-60
2022/09/21 06:05:47;;;;;;;;;;;19.50;46.70;;;;;;4916529;28;44649;-60
2022/09/21 06:08:12;;;;;;;;;;;19.60;46.60;;;;;;4917896;28;44782;-65
2022/09/21 06:10:38;;;;;;;;;;;19.70;46.50;;;;;;4919157;28;45567;-62
2022/09/21 06:13:03;;;;;;;;;;;19.90;46.30;;;;;;4917800;28;45942;-62
2022/09/21 06:15:29;;;;;;;;;;;20.00;46.10;;;;;;4919359;28;45485;-63
2022/09/21 06:17:54;;;;;;;;;;;20.20;45.80;;;;;;4919039;28;45264;-60
2022/09/21 06:20:20;;;;;;;;;;;20.40;45.60;;;;;;4919256;28;45491;-65
2022/09/21 06:22:45;;;;;;;0.40;0.40;;;20.50;45.40;;;;;;4916965;28;46981;-61
2022/09/21 06:25:11;;;;;;;0.88;0.60;;;20.70;45.10;;;;;;4919598;28;45313;-63
2022/09/21 06:27:36;;;;;;;0.95;0.52;;;20.80;45.00;;;;;;4917305;28;44995;-61
2022/09/21 06:30:02;;;;;;;0.52;0.40;;;20.90;45.00;;;;;;4918620;28;45446;-61
2022/09/21 06:32:28;;;;;;;;;;;21.00;44.90;;;;;;4918360;28;46300;-61
2022/09/21 06:34:53;;;;;;;;;;;21.10;44.70;;;;;;4917657;28;45416;-62
2022/09/21 06:37:19;;;;;;;;;;;21.20;44.60;;;;;;4919110;28;45634;-60
2022/09/21 06:39:44;;;;;;;;;;;21.30;44.60;;;;;;4919022;28;45312;-61
2022/09/21 06:42:10;;;;;;;;;;;21.40;44.50;;;;;;4916767;28;45677;-62
2022/09/21 06:44:35;;;;;;;;;;;21.60;44.40;;;;;;4913974;28;46829;-61
2022/09/21 06:47:01;;;;;;;;;;;21.60;44.30;;;;;;4919946;28;45065;-58
2022/09/21 06:49:27;;;;;;;;;;;21.80;44.20;;;;;;4921123;28;45175;-61
2022/09/21 06:51:53;;;;;;;;;;;21.90;44.10;;;;;;4918535;28;45984;-59
2022/09/21 06:54:19;;;;;;;;;;;22.00;44.00;;;;;;4919661;28;45070;-61
2022/09/21 06:56:45;;;;;;;;;;;22.10;43.90;;;;;;4902133;28;45483;-63
2022/09/21 06:59:10;;;;;;;;;;;22.10;43.80;;;;;;4917573;28;45554;-63
2022/09/21 07:01:36;;;;;;;;;;;22.20;43.80;;;;;;4917414;28;45843;-63
2022/09/21 07:04:01;;;;;;;;;;;22.30;43.70;;;;;;4920826;28;45262;-61
2022/09/21 07:06:28;;;;;;;;;;;22.30;43.60;;;;;;4921016;28;44682;-59
2022/09/21 07:08:53;;;;;;;;;;;22.40;43.50;;;;;;4917015;28;45175;-61
2022/09/21 07:11:19;;;;;;;;;;;22.50;43.40;;;;;;4918417;28;45978;-60
2022/09/21 07:13:45;;;;;;;;;;;22.60;43.40;;;;;;4916725;28;44944;-59
2022/09/21 07:16:11;;;;;;;;;;;22.60;43.30;;;;;;4917862;28;45534;-63
2022/09/21 07:18:38;;;;;;;;;;;22.70;43.20;;;;;;4913908;28;45446;-63
2022/09/21 07:21:04;;;;;;;;;;;22.70;43.10;;;;;;4918680;28;45648;-62
2022/09/21 07:23:29;;;;;;;;;;;22.80;43.10;;;;;;4919977;28;45169;-64
2022/09/21 07:25:55;;;;;;;;;;;22.80;43.00;;;;;;4917467;28;45429;-61
2022/09/21 07:28:20;;;;;;;;;;;22.90;42.90;;;;;;4911837;28;45238;-63
2022/09/21 07:30:46;;;;;;;;;;;23.00;42.90;;;;;;4916575;28;45922;-61
2022/09/21 07:33:11;;;;;;;;;;;23.00;42.80;;;;;;4917675;28;45550;-63
2022/09/21 07:35:37;;;;;;;;;;;23.10;42.80;;;;;;4917135;28;45330;-63
2022/09/21 07:38:03;;;;;;;;;;;23.10;42.70;;;;;;4917417;28;45281;-61
2022/09/21 07:40:28;;;;;;;;;;;23.20;42.70;;;;;;4893569;28;47006;-62
2022/09/21 07:42:57;;;;;;;;;;;23.20;42.60;;;;;;4913149;28;45810;-60
2022/09/21 07:45:24;;;;;;;;;;;23.30;42.50;;;;;;4917960;28;45289;-62
2022/09/21 07:47:53;;;;;;;;;;;23.40;43.10;;;;;;4916685;28;45560;-61
2022/09/21 07:50:19;;;;;;;;;;;23.40;42.50;;;;;;4917517;28;46083;-62
2022/09/21 07:52:44;;;;;;;;;;;23.40;42.40;;;;;;4914162;28;45487;-63
2022/09/21 07:55:10;;;;;;;;;;;23.50;42.40;;;;;;4918544;28;45508;-61
2022/09/21 08:00:19;;;;;;;;;;;23.60;42.30;;;;;;4915862;28;45913;-60
2022/09/21 08:02:45;;;;;;;;;;;23.60;42.20;;;;;;4917529;28;44986;-64
2022/09/21 08:05:10;;;;;;;;;;;23.70;42.10;;;;;;4917050;28;44815;-62
2022/09/21 08:07:36;;;;;;;;;;;23.70;42.00;;;;;;4918509;28;45602;-63
2022/09/21 08:10:01;;;;;;;;;;;23.80;42.00;;;;;;4915269;28;46074;-62
2022/09/21 08:12:27;;;;;;;;;;;23.80;41.90;;;;;;4916255;28;45083;-62
2022/09/21 08:14:52;;;;;;;;;;;23.90;41.90;;;;;;4915787;28;44759;-61
2022/09/21 08:17:18;;;;;;;;;;;23.90;41.80;;;;;;4900300;28;44882;-61
2022/09/21 08:19:43;;;;;;;;;;;24.00;41.80;;;;;;4917253;28;46120;-62
2022/09/21 08:22:11;;;;;;;;;;;24.00;41.70;;;;;;4916669;28;44975;-63
2022/09/21 08:24:36;;;;;;;;;;;24.10;41.70;;;;;;4916021;28;45449;-59
2022/09/21 08:27:02;;;;;;;;;;;24.10;41.60;;;;;;4917563;28;45593;-63
2022/09/21 08:29:29;;;;;;;;;;;24.10;41.60;;;;;;4918963;28;46330;-62
2022/09/21 08:31:55;;;;;;;;;;;24.20;41.60;;;;;;4912528;28;45620;-61
2022/09/21 08:34:22;;;;;;;;;;;24.20;41.50;;;;;;4918323;28;45678;-63
2022/09/21 08:36:47;;;;;;;;;;;24.30;41.50;;;;;;4916805;28;45067;-63
2022/09/21 08:39:12;;;;;;;;;;;24.30;41.40;;;;;;4919548;28;46420;-61
2022/09/21 08:41:57;;;;;;;;;;;24.40;41.40;;;;;;4916712;28;45197;-58
2022/09/21 08:44:23;;;;;;;;;;;24.40;41.30;;;;;;4915291;28;45476;-61
2022/09/21 08:46:53;;;;;;;;;;;24.40;41.20;;;;;;4915497;28;45464;-61
2022/09/21 08:49:20;;;;;;;;;;;24.50;41.20;;;;;;4899809;28;45232;-61
2022/09/21 08:51:47;;;;;;;;;;;24.50;41.10;;;;;;4916473;28;45067;-62
2022/09/21 08:54:18;;;;;;;;;;;24.60;41.20;;;;;;4915628;28;44927;-62
2022/09/21 08:56:43;;;;;;;;;;;24.60;41.10;;;;;;4899510;28;45926;-63
2022/09/21 08:59:14;;;;;;;;;;;24.70;41.00;;;;;;4905746;28;46178;-61
2022/09/21 09:01:57;;;;;;;;;;;24.70;41.00;;;;;;4906235;28;45467;-64
2022/09/21 09:04:35;;;;;;;;;;;24.70;40.90;;;;;;4915203;28;45300;-64
2022/09/21 09:07:07;;;;;;;;;;;24.80;40.90;;;;;;4916497;28;45124;-62
2022/09/21 09:09:32;;;;;;;;;;;24.80;40.80;;;;;;4916906;28;46015;-61
2022/09/21 09:11:57;;;;;;;;;;;24.80;40.80;;;;;;4917834;28;45511;-60
2022/09/21 09:14:29;;;;;;;;;;;24.80;40.70;;;;;;4915793;28;44785;-62
2022/09/21 09:17:03;;;;;;;;;;;24.90;40.60;;;;;;4915288;28;45343;-61
2022/09/21 09:19:44;;;;;;;;;;;25.00;40.70;;;;;;4915843;28;46064;-64
2022/09/21 09:22:11;;;;;;;;;;;25.00;40.70;;;;;;4911232;28;44622;-60
2022/09/21 09:24:39;;;;;;;;;;;25.10;40.70;;;;;;4913642;28;45148;-63
2022/09/21 09:27:09;;;;;;;;;;;25.10;40.60;;;;;;4913687;28;45555;-59
2022/09/21 09:29:43;;;;;;;;;;;25.10;40.50;;;;;;4910774;28;45979;-62
2022/09/21 09:32:10;;;;;;;;;;;25.10;40.40;;;;;;4916387;28;45222;-62
2022/09/21 09:34:37;;;;;;;;;;;25.00;40.40;;;;;;4915601;28;45015;-62
2022/09/21 09:37:15;;;;;;;;;;;25.00;40.50;;;;;;4929223;28;45213;-60
2022/09/21 09:39:41;;;;;;;;;;;25.00;40.50;;;;;;4915448;28;46937;-61
2022/09/21 09:42:07;;;;;;;;;;;25.10;40.60;;;;;;4928964;28;45263;-62
2022/09/21 09:44:49;;;;;;;;;;;25.10;40.50;;;;;;4916281;28;45424;-62
2022/09/21 09:47:17;;;;;;;;;;;25.10;40.50;;;;;;4914842;28;45068;-62
2022/09/21 09:50:04;;;;;;;;;;;25.20;40.40;;;;;;4916015;28;46032;-61
2022/09/21 09:52:30;;;;;;;;;;;25.20;40.40;;;;;;4928046;28;45471;-63
2022/09/21 09:54:56;;;;;;;;;;;25.20;40.30;;;;;;4917293;28;44901;-63
2022/09/21 09:57:31;;;;;;;;;;;25.20;40.30;;;;;;4913026;28;45074;-63
2022/09/21 10:00:11;;;;;;;;;;;25.20;40.30;;;;;;4912769;28;46192;-64
2022/09/21 10:02:44;;;;;;;;;;;25.20;40.20;;;;;;4899833;28;45336;-62
2022/09/21 10:05:17;;;;;;;;;;;25.30;40.30;;;;;;4896254;28;45238;-62
2022/09/21 10:07:44;;;;;;;;;;;25.30;40.30;;;;;;4870485;28;45985;-65
2022/09/21 10:10:22;;;;;;;;;;;25.30;40.20;;;;;;4888620;28;47294;-64
2022/09/21 10:12:48;;;;;;;;;;;25.30;40.30;;;;;;4894995;28;44981;-64
2022/09/21 10:15:15;;;;;;;;;;;25.30;40.10;;;;;;4899947;28;44973;-63
2022/09/21 10:17:41;;;;;;;;;;;25.20;40.20;;;;;;4898361;28;45254;-64
2022/09/21 10:20:13;;;;;;;;;;;25.20;40.30;;;;;;4881717;29;45884;-66
2022/09/21 10:22:38;;;;;;;;;;;25.10;40.30;;;;;;4900385;28;44750;-64
2022/09/21 10:25:05;;;;;;;;;;;25.00;40.30;;;;;;4888754;28;44740;-64
2022/09/21 10:27:35;;;;;;;;;;;25.00;40.30;;;;;;4897390;28;45491;-64
2022/09/21 10:30:00;;;;;;;;;;;25.00;40.40;;;;;;4896267;28;45466;-65
2022/09/21 10:32:26;;;;;;;;;;;24.90;40.40;;;;;;4903024;28;44738;-66
2022/09/21 10:34:59;;;;;;;;;;;24.90;40.60;;;;;;4900212;28;45653;-69
2022/09/21 10:37:28;;;;;;;;;;;24.80;40.60;;;;;;4903642;28;45700;-65
2022/09/21 10:39:54;;;;;;;;;;;24.80;40.60;;;;;;4901506;28;45964;-66
2022/09/21 10:42:19;;;;;;;;;;;24.70;40.60;;;;;;4900263;28;45565;-64
2022/09/21 10:44:45;;;;;;;;;;;24.70;41.40;;;;;;4899009;28;45220;-65
2022/09/21 10:47:19;;;;;;;;;;;24.70;40.80;;;;;;4900055;28;45392;-65
2022/09/21 10:49:46;;;;;;;;;;;24.60;40.80;;;;;;4897562;28;45378;-60
2022/09/21 10:52:11;;;;;;;;;;;24.60;41.20;;;;;;4899731;28;44916;-60
2022/09/21 10:54:37;;;;;;;;;;;24.50;41.20;;;;;;4886704;29;45735;-60
2022/09/21 10:57:13;;;;;;;;;;;24.50;41.20;;;;;;4900633;28;45582;-59
2022/09/21 10:59:38;;;;;;;;;;;24.50;41.20;;;;;;4901153;28;47105;-59
2022/09/21 11:02:22;;;;;;;;;;;24.50;41.20;;;;;;4907871;28;45217;-59
2022/09/21 11:04:49;;;;;;;;;;;24.50;41.30;;;;;;4935749;28;44986;-58
2022/09/21 11:07:14;;;;;;;;;;;24.40;41.30;;;;;;4921700;28;45683;-60
2022/09/21 11:09:49;;;;;;;;;;;24.40;41.40;;;;;;4918598;28;45868;-59
2022/09/21 11:12:23;;;;;;;;;;;24.40;41.40;;;;;;4934734;28;45534;-59
2022/09/21 11:14:58;;;;;;;;;;;24.40;41.50;;;;;;4920068;28;45613;-60
2022/09/21 11:17:57;;;;;;;;;;;24.40;41.50;;;;;;4921350;28;45055;-59
2022/09/21 11:20:25;;;;;;;;;;;24.40;41.60;;;;;;4897444;28;46110;-60
2022/09/21 11:22:52;;;;;;;;;;;24.30;41.60;;;;;;4921410;28;45539;-60
2022/09/21 11:25:32;;;;;;;;;;;24.30;41.60;;;;;;4923459;28;45266;-59
2022/09/21 11:28:21;;;;;;;;;;;24.30;41.60;;;;;;4915548;28;45286;-59
2022/09/21 11:30:50;;;;;;;;;;;24.30;41.60;;;;;;4907181;28;46009;-59
2022/09/21 11:33:18;;;;;;;;;;;24.30;41.70;;;;;;4920970;28;45264;-60
2022/09/21 11:35:50;;;;;;;;;;;24.20;41.60;;;;;;4921647;28;44900;-60
2022/09/21 11:38:24;;;;;;;;;;;24.20;41.70;;;;;;4933953;28;45112;-58
2022/09/21 11:41:02;;;;;;;;;;;24.20;41.70;;;;;;4921376;28;45389;-58
2022/09/21 11:43:38;;;;;;;;;;;24.20;41.70;;;;;;4935352;28;45059;-60
2022/09/21 11:46:07;;;;;;;;;;;24.20;41.80;;;;;;4921293;28;44763;-59
2022/09/21 11:48:32;;;;;;;;;;;24.20;41.80;;;;;;4922316;28;44683;-61
2022/09/21 11:50:58;;;;;;;;;;;24.20;41.90;;;;;;4920962;28;45302;-60
2022/09/21 11:53:27;;;;;;;;;;;24.10;41.80;;;;;;4921730;28;45212;-62
2022/09/21 11:55:56;;;;;;;;;;;24.10;41.90;;;;;;4933638;28;45248;-60
2022/09/21 11:58:26;;;;;;;;;;;24.10;41.90;;;;;;4917420;28;45145;-60
2022/09/21 12:00:51;;;;;;;;;;;24.10;42.00;;;;;;4931532;28;45993;-59
2022/09/21 12:03:25;;;;;;;;;;;24.10;42.00;;;;;;4917758;28;45296;-60
2022/09/21 12:06:03;;;;;;;;;;;24.10;42.00;;;;;;4908011;28;44833;-59
2022/09/21 12:08:35;;;;;;;;;;;24.10;42.10;;;;;;4918499;28;44862;-60
2022/09/21 12:11:03;;;;;;;;;;;24.00;42.10;;;;;;4916167;28;47699;-61
2022/09/21 12:13:49;;;;;;;;;;;24.00;42.10;;;;;;4917380;28;45338;-61
2022/09/21 12:16:24;;;;;;;;;;;24.00;42.20;;;;;;4918674;28;45429;-60
2022/09/21 12:19:03;;;;;;;;;;;24.00;42.20;;;;;;4915414;28;45448;-59
2022/09/21 12:21:36;;;;;;;;;;;24.00;42.30;;;;;;4912752;28;47194;-59
2022/09/21 12:24:11;;;;;;;;;;;23.90;42.40;;;;;;4918061;28;45182;-59
2022/09/21 12:26:39;;;;;;;;;;;23.90;42.30;;;;;;4919006;28;44714;-58
2022/09/21 12:29:09;;;;;;;;;;;23.90;42.40;;;;;;4916439;28;45529;-59
2022/09/21 12:31:41;;;;;;;;;;;23.90;42.40;;;;;;4911387;28;46129;-59
2022/09/21 12:34:12;;;;;;;;;;;23.90;42.40;;;;;;4915068;28;45627;-58
2022/09/21 12:36:39;;;;;;;;;;;23.90;42.40;;;;;;4912813;28;45336;-60
2022/09/21 12:39:16;;;;;;;;;;;23.90;42.50;;;;;;4896426;28;45961;-59
2022/09/21 12:42:21;;;;;;;;;;;23.90;42.50;;;;;;4915173;28;46136;-60
2022/09/21 12:44:51;;;;;;;;;;;23.90;42.50;;;;;;4840454;29;45239;-60
2022/09/21 12:47:40;;;;;;;;;;;23.80;42.50;;;;;;4840588;29;45232;-59
2022/09/21 12:50:19;;;;;;;;;;;23.80;42.60;;;;;;4874860;28;45414;-60
2022/09/21 12:52:45;;;;;;;;;;;23.80;42.60;;;;;;4913375;28;47017;-61
2022/09/21 12:55:29;;;;;;;;;;;23.80;42.60;;;;;;4916575;28;44722;-59
2022/09/21 12:57:55;;;;;;;;;;;23.80;42.60;;;;;;4916755;28;44841;-60
2022/09/21 13:00:21;;;;;;;;;;;23.80;42.70;;;;;;4914507;28;45633;-60
2022/09/21 13:02:53;;;;;;;;;;;23.80;43.30;;;;;;4877086;28;1065491;-59
2022/09/21 13:05:34;;;;;;;;;;;23.80;42.80;;;;;;4899702;28;45704;-60
2022/09/21 13:08:12;;;;;;;;;;;23.80;42.80;;;;;;4914440;28;44791;-59
2022/09/21 13:10:54;;;;;;;;;;;23.70;42.70;;;;;;4899424;28;45588;-60
2022/09/21 13:13:27;;;;;;;;;;;23.80;42.80;;;;;;4916767;28;46545;-59
2022/09/21 13:15:53;;;;;;;;;;;23.70;42.80;;;;;;4904437;28;45030;-59
2022/09/21 13:18:21;;;;;;;;;;;23.70;42.80;;;;;;4898225;28;45216;-60
2022/09/21 13:20:46;;;;;;;;;;;23.70;42.80;;;;;;4902003;28;45234;-58
2022/09/21 13:23:15;;;;;;;;;;;23.70;42.90;;;;;;4905110;28;46203;-60
2022/09/21 13:25:41;;;;;;;;;;;23.70;42.90;;;;;;4920907;28;45573;-60
2022/09/21 13:28:14;;;;;;;;;;;23.70;42.90;;;;;;4901769;28;45521;-59
2022/09/21 13:30:46;;;;;;;;;;;23.70;42.90;;;;;;4915215;28;45170;-60
2022/09/21 13:33:18;;;;;;;;;;;23.60;42.90;;;;;;4919036;28;46192;-60
2022/09/21 13:35:52;;;;;;;;;;;23.60;43.50;;;;;;4919360;28;45180;-60
2022/09/21 13:38:21;;;;;;;;;;;23.60;42.90;;;;;;4918388;28;45135;-59
2022/09/21 13:40:55;;;;;;;;;;;23.60;42.90;;;;;;4918118;28;45340;-60
2022/09/21 13:43:21;;;;;;;;;;;23.60;43.00;;;;;;4897399;28;46222;-60
2022/09/21 13:45:48;;;;;;;;;;;23.60;43.00;;;;;;4920160;28;45375;-60
2022/09/21 13:48:18;;;;;;;;;;;23.60;43.10;;;;;;4917435;28;45204;-59
2022/09/21 13:50:43;;;;;;;;;;;23.60;43.00;;;;;;4919009;28;45628;-58
2022/09/21 13:53:22;;;;;;;;;;;23.60;43.10;;;;;;4919383;28;46944;-59
2022/09/21 13:55:52;;;;;;;;;;;23.60;43.10;;;;;;4907516;28;45289;-60
2022/09/21 13:58:19;;;;;;;;;;;23.60;43.10;;;;;;4899784;28;44739;-60
2022/09/21 14:00:51;;;;;;;;;;;23.60;43.10;;;;;;4922350;28;45218;-60
2022/09/21 14:03:23;;;;;;;;;;;23.50;43.20;;;;;;4919975;28;45171;-60
2022/09/21 14:05:50;;;;;;;;;;;23.50;43.20;;;;;;4922008;28;45803;-60
2022/09/21 14:08:17;;;;;;;;;;;23.60;43.20;;;;;;4922069;28;45213;-60
2022/09/21 14:10:54;;;;;;;;;;;23.50;43.20;;;;;;4916851;28;45699;-59
2022/09/21 14:13:25;;;;;;;;;;;23.50;43.30;;;;;;4901472;28;47039;-59
2022/09/21 14:15:51;;;;;;;;;;;23.50;43.20;;;;;;4922691;28;45289;-59
2022/09/21 14:18:17;;;;;;;;;;;23.50;43.30;;;;;;4921226;28;45483;-57
2022/09/21 14:21:02;;;;;;;;;;;23.50;43.30;;;;;;4903555;28;45535;-60
2022/09/21 14:23:27;;;;;;;;;;;23.50;43.30;;;;;;4919621;28;47180;-59
2022/09/21 14:25:55;;;;;;;;;;;23.50;43.30;;;;;;4922632;28;45200;-60
2022/09/21 14:28:33;;;;;;;;;;;23.50;43.30;;;;;;4921889;28;45582;-57
2022/09/21 14:31:00;;;;;;;;;;;23.50;43.30;;;;;;4918604;28;45250;-59
2022/09/21 14:33:32;;;;;;;;;;;23.40;43.30;;;;;;4923304;28;45948;-57
2022/09/21 14:35:57;;;;;;;;;;;23.40;43.30;;;;;;4918327;28;45866;-60
2022/09/21 14:38:27;;;;;;;;;;;23.40;43.30;;;;;;4901789;28;45391;-61
2022/09/21 14:41:00;;;;;;;;;;;23.50;43.40;;;;;;4919335;28;45219;-60
2022/09/21 14:43:32;;;;;;;;;;;23.50;43.40;;;;;;4905210;28;46058;-61
2022/09/21 14:46:11;;;;;;;;;;;23.40;43.40;;;;;;4922007;28;44994;-59
2022/09/21 14:48:40;;;;;;;;;;;23.40;43.40;;;;;;4921593;28;45309;-60
2022/09/21 14:51:14;;;;;;;;;;;23.40;43.40;;;;;;4913444;28;45989;-60
2022/09/21 14:53:55;;;;;;;;;;;23.40;43.40;;;;;;4911213;28;46304;-61
2022/09/21 14:56:29;;;;;;;;;;;23.40;43.40;;;;;;4914497;28;44919;-61
2022/09/21 14:59:06;;;;;;;;;;;23.40;43.40;;;;;;4916330;28;45757;-60
2022/09/21 15:01:32;;;;;;;;;;;23.40;43.50;;;;;;4918824;28;45366;-61
2022/09/21 15:04:07;;;;;;;;;;;23.40;43.60;;;;;;4917034;28;46152;-58
2022/09/21 15:12:15;;;;;;;;;;;23.40;43.90;;;;;;4911931;28;45102;-61
2022/09/21 15:14:45;;;;;;;;;;;23.40;43.90;;;;;;4916159;28;45568;-61
2022/09/21 15:17:18;;;;;;;;;;;23.30;43.90;;;;;;4930929;28;45024;-61
2022/09/21 15:19:43;;;;;;;;;;;23.30;43.80;;;;;;4911547;28;45887;-61
2022/09/21 15:22:14;;;;;;;;;;;23.30;43.70;;;;;;4929725;28;45882;-61
2022/09/21 15:24:47;;;;;;;;;;;23.30;43.80;;;;;;4913648;28;46163;-60
2022/09/21 15:27:13;;;;;;;;;;;23.30;43.80;;;;;;4912731;28;46247;-61
2022/09/21 15:29:40;;;;;;;;;;;23.20;43.80;;;;;;4915188;28;45632;-61
2022/09/21 15:32:05;;;;;;;;;;;23.20;43.90;;;;;;4928408;28;44883;-60
2022/09/21 15:34:31;;;;;;;;;;;23.20;44.00;;;;;;4914031;28;45972;-59
2022/09/21 15:37:16;;;;;;;;;;;23.10;43.90;;;;;;4914033;28;45453;-61
2022/09/21 15:39:41;;;;;;;;;;;23.10;44.00;;;;;;4915092;28;45444;-60
2022/09/21 15:42:16;;;;;;;;;;;23.10;44.00;;;;;;4912409;28;45772;-60
2022/09/21 15:44:44;;;;;;;;;;;23.10;44.00;;;;;;4913553;28;46195;-60
2022/09/21 15:47:11;;;;;;;;;;;23.10;44.00;;;;;;4915507;28;45340;-61
2022/09/21 15:49:36;;;;;;;;;;;23.10;44.00;;;;;;4930801;28;44850;-59
2022/09/21 15:52:08;;;;;;;;;;;23.10;44.00;;;;;;4912366;28;45826;-60
2022/09/21 15:54:35;;;;;;;;;;;23.00;44.10;;;;;;4897766;28;48019;-60
2022/09/21 15:57:02;;;;;;;;;;;23.00;44.10;;;;;;4897882;28;45272;-60
2022/09/21 15:59:28;;;;;;;;;;;23.00;44.10;;;;;;4913922;28;44755;-61
2022/09/21 16:01:54;;;;;;;;;;;23.00;44.10;;;;;;4930235;28;45645;-60
2022/09/21 16:04:21;;;;;;;;;;;22.90;44.00;;;;;;4911759;28;46853;-61
2022/09/21 16:07:06;;;;;;;;;;;22.90;44.00;;;;;;4912026;28;44631;-60
2022/09/21 16:09:42;;;;;;;;;;;22.90;44.00;;;;;;4913811;28;45046;-59
2022/09/21 16:12:26;;;;;;;;;;;22.90;44.10;;;;;;4913019;28;45809;-59
2022/09/21 16:14:55;;;;;;;;;;;22.90;44.10;;;;;;4912933;28;46061;-61
2022/09/21 16:17:22;;;;;;;;;;;22.90;44.10;;;;;;4915234;28;44789;-59
2022/09/21 16:19:52;;;;;;;;;;;22.80;44.10;;;;;;4913183;28;46187;-61
2022/09/21 16:22:22;;;;;;;;;;;22.80;44.10;;;;;;4913650;28;45593;-60
2022/09/21 16:24:49;;;;;;;;;;;22.80;44.20;;;;;;4910042;28;45983;-60
2022/09/21 16:27:15;;;;;;;;;;;22.80;44.30;;;;;;4913817;28;45103;-59
2022/09/21 16:29:42;;;;;;;;;;;22.70;44.20;;;;;;4912735;28;44702;-61
2022/09/21 16:32:16;;;;;;;;;;;22.70;44.20;;;;;;4913259;28;45101;-60
2022/09/21 16:34:45;;;;;;;;;;;22.70;44.20;;;;;;4913796;28;46362;-60
2022/09/21 16:37:23;;;;;;;;;;;22.70;44.30;;;;;;4910587;28;45581;-61
2022/09/21 16:39:52;;;;;;;;;;;22.70;44.30;;;;;;4914649;28;45365;-60
2022/09/21 16:42:18;;;;;;;;;;;22.70;44.30;;;;;;4913637;28;44768;-60
2022/09/21 16:44:44;;;;;;;;;;;22.70;44.30;;;;;;4911515;28;45490;-60
2022/09/21 16:47:10;;;;;;;;;;;22.70;44.40;;;;;;4894462;28;45725;-61
2022/09/21 16:49:36;;;;;;;;;;;22.60;44.40;;;;;;4912764;28;45509;-59
2022/09/21 16:52:01;;;;;;;;;;;22.60;44.40;;;;;;4912914;28;45598;-59
2022/09/21 16:54:27;;;;;;;;;;;22.60;44.50;;;;;;4912795;28;45451;-61
2022/09/21 16:56:54;;;;;;;;;;;22.60;44.50;;;;;;4912471;28;45233;-60
2022/09/21 16:59:21;;;;;;;;;;;22.50;44.50;;;;;;4913334;28;45001;-60
2022/09/21 17:01:51;;;;;;;;;;;22.50;44.50;;;;;;4913069;28;45289;-60
2022/09/21 17:04:21;;;;;;;;;;;22.50;44.60;;;;;;4913821;28;46200;-60
2022/09/21 17:06:47;;;;;;;;;;;22.50;44.60;;;;;;4911612;28;45436;-60
2022/09/21 17:09:17;;;;;;;;;;;22.50;44.60;;;;;;4914556;28;44827;-61
2022/09/21 17:11:44;;;;;;;;;;;22.40;44.60;;;;;;4910104;28;45288;-61
2022/09/21 17:14:14;;;;;;;;;;;22.40;44.70;;;;;;4913578;28;46148;-60
2022/09/21 17:16:41;;;;;;;;;;;22.40;44.70;;;;;;4911492;28;45512;-61
2022/09/21 17:19:07;;;;;;;;;;;22.40;44.70;;;;;;4911501;28;45543;-60
2022/09/21 17:21:32;;;;;;;;;;;22.40;44.70;;;;;;4909049;28;45410;-60
2022/09/21 17:23:58;;;;;;;;;;;22.40;44.80;;;;;;4913371;28;45737;-60
2022/09/21 17:26:23;;;;;;;;;;;22.30;44.70;;;;;;4914468;28;45388;-61
2022/09/21 17:28:49;;;;;;;;;;;22.30;44.70;;;;;;4914122;28;45580;-59
2022/09/21 17:31:17;;;;;;;;;;;22.30;44.60;;;;;;4916518;28;44894;-62
2022/09/21 17:33:44;;;;;;;;;;;22.30;44.60;;;;;;4917488;28;46095;-60
2022/09/21 17:36:11;;;;;;;;;;;22.30;44.50;;;;;;4900524;28;45003;-61